createdAt,value
2022-11-25T00:00:06.793Z,6.78
2022-11-25T00:01:06.771Z,6.82
2022-11-25T00:02:06.865Z,6.81
2022-11-25T00:03:06.818Z,6.74
2022-11-25T00:04:06.726Z,6.77
2022-11-25T00:05:06.710Z,6.77
2022-11-25T00:06:06.720Z,6.79
2022-11-25T00:07:06.717Z,6.79
2022-11-25T00:08:06.680Z,6.75
2022-11-25T00:09:06.666Z,6.72
2022-11-25T00:10:06.661Z,6.70
2022-11-25T00:11:06.666Z,6.84
2022-11-25T00:12:06.632Z,6.75
2022-11-25T00:13:06.626Z,6.67
2022-11-25T00:14:06.612Z,6.72
2022-11-25T00:15:06.602Z,6.77
2022-11-25T00:16:06.658Z,6.69
2022-11-25T00:17:06.610Z,6.69
2022-11-25T00:18:06.596Z,6.77
2022-11-25T00:19:06.563Z,6.75
2022-11-25T00:20:06.557Z,6.81
2022-11-25T00:21:06.537Z,6.74
2022-11-25T00:22:06.562Z,6.79
2022-11-25T00:23:06.536Z,6.77
2022-11-25T00:24:06.536Z,6.75
2022-11-25T00:25:06.517Z,6.77
2022-11-25T00:26:06.484Z,6.81
2022-11-25T00:27:06.479Z,6.79
2022-11-25T00:28:06.483Z,6.81
2022-11-25T00:29:06.457Z,6.79
2022-11-25T00:30:06.529Z,6.75
2022-11-25T00:31:06.438Z,6.77
2022-11-25T00:32:06.515Z,6.88
2022-11-25T00:33:06.425Z,6.78
2022-11-25T00:34:06.428Z,6.82
2022-11-25T00:35:06.385Z,6.82
2022-11-25T00:36:06.384Z,6.79
2022-11-25T00:37:06.369Z,6.85
2022-11-25T00:38:06.381Z,6.81
2022-11-25T00:39:06.370Z,6.84
2022-11-25T00:40:06.364Z,6.79
2022-11-25T00:41:06.332Z,6.81
2022-11-25T00:42:06.320Z,6.84
2022-11-25T00:43:06.309Z,6.77
2022-11-25T00:44:06.303Z,6.75
2022-11-25T00:45:06.287Z,6.69
2022-11-25T00:46:06.399Z,6.72
2022-11-25T00:47:06.264Z,6.69
2022-11-25T00:48:06.255Z,6.66
2022-11-25T00:49:06.250Z,6.77
2022-11-25T00:50:06.252Z,6.79
2022-11-25T00:51:06.217Z,6.72
2022-11-25T00:52:06.201Z,6.70
2022-11-25T00:53:06.204Z,6.70
2022-11-25T00:54:15.279Z,6.64
2022-11-25T00:55:06.196Z,6.64
2022-11-25T00:56:06.190Z,6.75
2022-11-25T00:57:06.267Z,6.69
2022-11-25T00:58:06.150Z,6.75
2022-11-25T00:59:06.152Z,6.75
2022-11-25T01:00:06.137Z,6.70
2022-11-25T01:01:06.206Z,6.77
2022-11-25T01:02:06.184Z,6.64
2022-11-25T01:03:06.085Z,6.75
2022-11-25T01:04:06.088Z,6.74
2022-11-25T01:05:06.090Z,6.78
2022-11-25T01:06:06.063Z,6.74
2022-11-25T01:07:06.072Z,6.75
2022-11-25T01:08:06.045Z,6.75
2022-11-25T01:09:06.038Z,6.75
2022-11-25T01:10:06.045Z,6.78
2022-11-25T01:11:06.026Z,6.66
2022-11-25T01:12:06.000Z,6.66
2022-11-25T01:13:06.021Z,6.74
2022-11-25T01:14:05.978Z,6.70
2022-11-25T01:15:05.966Z,6.67
2022-11-25T01:16:06.045Z,6.63
2022-11-25T01:17:05.954Z,6.78
2022-11-25T01:18:05.966Z,6.69
2022-11-25T01:19:05.929Z,6.78
2022-11-25T01:20:05.914Z,6.72
2022-11-25T01:21:05.910Z,6.67
2022-11-25T01:22:05.895Z,6.79
2022-11-25T01:23:05.886Z,6.62
2022-11-25T01:24:05.901Z,6.79
2022-11-25T01:25:05.870Z,6.63
2022-11-25T01:26:05.898Z,6.78
2022-11-25T01:27:05.839Z,6.64
2022-11-25T01:28:05.836Z,6.67
2022-11-25T01:29:05.820Z,6.62
2022-11-25T01:30:05.813Z,6.62
2022-11-25T01:31:05.804Z,6.72
2022-11-25T01:32:05.868Z,6.64
2022-11-25T01:33:05.781Z,6.75
2022-11-25T01:34:05.788Z,6.66
2022-11-25T01:35:05.771Z,6.69
2022-11-25T01:36:05.751Z,6.77
2022-11-25T01:37:05.763Z,6.79
2022-11-25T01:38:05.721Z,6.66
2022-11-25T01:39:05.732Z,6.66
2022-11-25T01:40:05.712Z,6.70
2022-11-25T01:41:05.703Z,6.72
2022-11-25T01:42:05.704Z,6.81
2022-11-25T01:43:05.688Z,6.81
2022-11-25T01:44:05.678Z,6.81
2022-11-25T01:45:05.641Z,6.79
2022-11-25T01:46:05.680Z,6.81
2022-11-25T01:47:05.630Z,6.84
2022-11-25T01:48:05.615Z,6.79
2022-11-25T01:49:05.627Z,6.78
2022-11-25T01:50:05.617Z,6.78
2022-11-25T01:51:05.582Z,6.79
2022-11-25T01:52:05.578Z,6.88
2022-11-25T01:53:05.594Z,6.84
2022-11-25T01:54:05.552Z,6.79
2022-11-25T01:55:05.541Z,6.87
2022-11-25T01:56:05.535Z,6.88
2022-11-25T01:57:05.525Z,6.88
2022-11-25T01:58:05.521Z,6.82
2022-11-25T01:59:05.520Z,6.85
2022-11-25T02:00:05.506Z,6.84
2022-11-25T02:01:05.550Z,6.85
2022-11-25T02:02:05.490Z,6.88
2022-11-25T02:03:05.460Z,6.82
2022-11-25T02:04:05.452Z,6.89
2022-11-25T02:05:05.459Z,6.82
2022-11-25T02:06:05.422Z,6.82
2022-11-25T02:07:05.424Z,6.81
2022-11-25T02:08:05.412Z,6.81
2022-11-25T02:09:05.397Z,6.84
2022-11-25T02:10:05.396Z,6.81
2022-11-25T02:11:05.370Z,6.79
2022-11-25T02:12:05.374Z,6.82
2022-11-25T02:13:05.356Z,6.89
2022-11-25T02:14:05.358Z,6.97
2022-11-25T02:15:05.350Z,6.85
2022-11-25T02:16:05.360Z,6.92
2022-11-25T02:17:05.311Z,6.89
2022-11-25T02:18:05.290Z,6.84
2022-11-25T02:19:05.288Z,6.92
2022-11-25T02:20:05.270Z,6.93
2022-11-25T02:21:05.294Z,6.79
2022-11-25T02:22:05.250Z,6.82
2022-11-25T02:23:05.255Z,6.89
2022-11-25T02:24:05.232Z,6.87
2022-11-25T02:25:05.225Z,6.92
2022-11-25T02:26:05.204Z,6.87
2022-11-25T02:27:05.197Z,6.85
2022-11-25T02:28:05.200Z,6.84
2022-11-25T02:29:05.184Z,6.79
2022-11-25T02:30:05.177Z,6.82
2022-11-25T02:31:05.164Z,6.72
2022-11-25T02:32:05.256Z,6.77
2022-11-25T02:33:05.130Z,6.74
2022-11-25T02:34:05.144Z,6.75
2022-11-25T02:35:05.115Z,6.74
2022-11-25T02:36:05.103Z,6.79
2022-11-25T02:37:05.104Z,6.74
2022-11-25T02:38:05.098Z,6.79
2022-11-25T02:39:05.069Z,6.75
2022-11-25T02:40:05.141Z,6.82
2022-11-25T02:41:05.079Z,6.75
2022-11-25T02:42:05.050Z,6.79
2022-11-25T02:43:05.027Z,6.66
2022-11-25T02:44:05.015Z,6.64
2022-11-25T02:45:05.027Z,6.69
2022-11-25T02:46:05.102Z,6.77
2022-11-25T02:47:04.987Z,6.70
2022-11-25T02:48:04.990Z,6.64
2022-11-25T02:49:09.643Z,6.75
2022-11-25T02:50:05.976Z,6.69
2022-11-25T02:51:04.948Z,6.72
2022-11-25T02:52:04.985Z,6.69
2022-11-25T02:53:04.936Z,6.66
2022-11-25T02:54:04.918Z,6.67
2022-11-25T02:55:04.921Z,6.59
2022-11-25T02:56:04.895Z,6.70
2022-11-25T02:57:04.916Z,6.64
2022-11-25T02:58:04.865Z,6.60
2022-11-25T02:59:04.868Z,6.66
2022-11-25T03:00:04.856Z,6.62
2022-11-25T03:01:04.909Z,6.60
2022-11-25T03:02:04.897Z,6.59
2022-11-25T03:03:04.828Z,6.66
2022-11-25T03:04:04.812Z,6.62
2022-11-25T03:05:04.793Z,6.62
2022-11-25T03:06:04.779Z,6.72
2022-11-25T03:07:04.770Z,6.63
2022-11-25T03:08:04.782Z,6.81
2022-11-25T03:09:04.758Z,6.63
2022-11-25T03:10:04.750Z,6.64
2022-11-25T03:11:04.731Z,6.75
2022-11-25T03:12:04.713Z,6.70
2022-11-25T03:13:04.726Z,6.69
2022-11-25T03:14:04.697Z,6.74
2022-11-25T03:15:04.692Z,6.75
2022-11-25T03:16:04.805Z,6.74
2022-11-25T03:17:04.682Z,6.72
2022-11-25T03:18:04.692Z,6.78
2022-11-25T03:19:04.637Z,6.69
2022-11-25T03:20:04.639Z,6.62
2022-11-25T03:21:04.623Z,6.74
2022-11-25T03:22:04.617Z,6.70
2022-11-25T03:23:04.598Z,6.60
2022-11-25T03:24:04.595Z,6.72
2022-11-25T03:25:04.578Z,6.75
2022-11-25T03:26:04.571Z,6.72
2022-11-25T03:27:04.551Z,6.67
2022-11-25T03:28:04.565Z,6.70
2022-11-25T03:29:04.550Z,6.75
2022-11-25T03:30:04.522Z,6.66
2022-11-25T03:31:04.511Z,6.66
2022-11-25T03:32:09.297Z,6.70
2022-11-25T03:33:05.527Z,6.77
2022-11-25T03:34:04.497Z,6.78
2022-11-25T03:35:04.505Z,6.81
2022-11-25T03:36:04.454Z,6.81
2022-11-25T03:37:04.617Z,6.84
2022-11-25T03:38:04.437Z,6.79
2022-11-25T03:39:04.431Z,6.89
2022-11-25T03:40:04.410Z,6.82
2022-11-25T03:41:04.414Z,6.85
2022-11-25T03:42:04.386Z,6.87
2022-11-25T03:43:04.384Z,6.96
2022-11-25T03:44:04.373Z,6.97
2022-11-25T03:45:04.384Z,6.85
2022-11-25T03:46:04.388Z,6.85
2022-11-25T03:47:04.340Z,6.88
2022-11-25T03:48:04.320Z,6.96
2022-11-25T03:49:04.310Z,6.88
2022-11-25T03:50:04.328Z,6.99
2022-11-25T03:51:04.313Z,6.99
2022-11-25T03:52:04.281Z,6.93
2022-11-25T03:53:04.269Z,6.96
2022-11-25T03:54:04.260Z,7.02
2022-11-25T03:55:04.258Z,6.96
2022-11-25T03:56:04.245Z,6.99
2022-11-25T03:57:04.227Z,6.92
2022-11-25T03:58:04.268Z,6.89
2022-11-25T03:59:04.211Z,6.87
2022-11-25T04:00:04.211Z,6.81
2022-11-25T04:01:04.276Z,6.82
2022-11-25T04:02:04.239Z,6.79
2022-11-25T04:03:04.165Z,6.82
2022-11-25T04:04:04.157Z,6.82
2022-11-25T04:05:04.148Z,6.79
2022-11-25T04:06:04.167Z,6.82
2022-11-25T04:07:04.130Z,6.84
2022-11-25T04:08:04.163Z,6.89
2022-11-25T04:09:04.111Z,6.81
2022-11-25T04:10:04.104Z,6.82
2022-11-25T04:11:04.108Z,6.89
2022-11-25T04:12:04.090Z,6.82
2022-11-25T04:13:04.069Z,6.81
2022-11-25T04:14:04.052Z,6.84
2022-11-25T04:15:04.049Z,6.85
2022-11-25T04:16:04.053Z,6.88
2022-11-25T04:17:04.094Z,6.81
2022-11-25T04:18:04.014Z,6.89
2022-11-25T04:19:04.000Z,6.84
2022-11-25T04:20:03.980Z,6.82
2022-11-25T04:21:03.989Z,6.88
2022-11-25T04:22:04.005Z,6.96
2022-11-25T04:23:03.955Z,6.82
2022-11-25T04:24:03.960Z,6.88
2022-11-25T04:25:03.932Z,6.87
2022-11-25T04:26:03.935Z,6.84
2022-11-25T04:27:03.908Z,6.87
2022-11-25T04:28:03.897Z,6.95
2022-11-25T04:29:03.915Z,6.82
2022-11-25T04:30:03.877Z,6.87
2022-11-25T04:31:03.907Z,6.85
2022-11-25T04:32:03.866Z,6.92
2022-11-25T04:33:03.851Z,6.96
2022-11-25T04:34:03.873Z,6.96
2022-11-25T04:35:03.819Z,6.96
2022-11-25T04:36:03.812Z,6.92
2022-11-25T04:37:03.813Z,7.00
2022-11-25T04:38:03.813Z,7.02
2022-11-25T04:39:03.789Z,7.06
2022-11-25T04:40:03.811Z,6.99
2022-11-25T04:41:03.762Z,7.05
2022-11-25T04:42:03.761Z,6.96
2022-11-25T04:43:10.269Z,7.06
2022-11-25T04:44:03.743Z,6.97
2022-11-25T04:46:20.230Z,6.97
2022-11-25T04:47:04.780Z,6.97
2022-11-25T04:48:03.707Z,6.99
2022-11-25T04:49:03.678Z,7.02
2022-11-25T04:50:03.671Z,7.02
2022-11-25T04:51:03.654Z,7.02
2022-11-25T04:52:03.679Z,6.99
2022-11-25T04:53:03.645Z,7.13
2022-11-25T04:54:03.649Z,7.14
2022-11-25T04:55:03.624Z,7.03
2022-11-25T04:56:03.617Z,7.07
2022-11-25T04:57:03.615Z,7.13
2022-11-25T04:58:03.612Z,7.13
2022-11-25T04:59:03.569Z,7.05
2022-11-25T05:00:03.570Z,7.10
2022-11-25T05:01:03.622Z,7.13
2022-11-25T05:02:03.607Z,6.99
2022-11-25T05:03:03.538Z,7.10
2022-11-25T05:04:03.550Z,7.03
2022-11-25T05:05:03.506Z,7.13
2022-11-25T05:06:03.513Z,7.13
2022-11-25T05:07:03.504Z,7.15
2022-11-25T05:08:03.481Z,7.18
2022-11-25T05:09:03.462Z,7.14
2022-11-25T05:10:03.471Z,7.14
2022-11-25T05:11:03.466Z,7.13
2022-11-25T05:12:03.458Z,7.14
2022-11-25T05:13:03.434Z,7.18
2022-11-25T05:14:03.421Z,7.13
2022-11-25T05:15:03.446Z,7.11
2022-11-25T05:16:03.388Z,7.13
2022-11-25T05:17:03.528Z,7.14
2022-11-25T05:18:03.366Z,7.13
2022-11-25T05:19:03.360Z,7.05
2022-11-25T05:20:03.362Z,7.13
2022-11-25T05:21:03.365Z,7.07
2022-11-25T05:22:03.334Z,7.14
2022-11-25T05:23:03.309Z,7.13
2022-11-25T05:24:03.340Z,7.13
2022-11-25T05:25:03.308Z,6.99
2022-11-25T05:26:03.307Z,7.07
2022-11-25T05:27:03.334Z,6.99
2022-11-25T05:28:03.264Z,7.15
2022-11-25T05:29:03.256Z,7.03
2022-11-25T05:30:03.246Z,7.13
2022-11-25T05:31:03.293Z,6.99
2022-11-25T05:32:03.250Z,7.11
2022-11-25T05:33:03.208Z,7.14
2022-11-25T05:34:03.213Z,7.14
2022-11-25T05:35:03.191Z,7.14
2022-11-25T05:36:03.184Z,6.99
2022-11-25T05:37:03.181Z,7.07
2022-11-25T05:38:03.187Z,7.13
2022-11-25T05:39:03.150Z,7.14
2022-11-25T05:40:03.148Z,7.03
2022-11-25T05:41:03.135Z,7.15
2022-11-25T05:42:03.122Z,7.13
2022-11-25T05:43:03.128Z,7.14
2022-11-25T05:44:03.092Z,7.15
2022-11-25T05:45:03.078Z,7.14
2022-11-25T05:46:03.145Z,7.11
2022-11-25T05:47:03.066Z,7.06
2022-11-25T05:48:03.045Z,7.06
2022-11-25T05:49:03.076Z,7.15
2022-11-25T05:50:03.034Z,7.13
2022-11-25T05:51:03.026Z,7.13
2022-11-25T05:52:03.016Z,7.10
2022-11-25T05:53:02.999Z,7.18
2022-11-25T05:54:02.989Z,7.10
2022-11-25T05:55:02.994Z,7.10
2022-11-25T05:56:02.967Z,7.13
2022-11-25T05:57:02.956Z,7.11
2022-11-25T05:58:02.961Z,7.13
2022-11-25T05:59:02.928Z,7.15
2022-11-25T06:00:02.949Z,7.11
2022-11-25T06:01:02.917Z,7.13
2022-11-25T06:02:02.971Z,7.17
2022-11-25T06:03:03.053Z,7.10
2022-11-25T06:04:02.889Z,7.13
2022-11-25T06:05:02.909Z,7.18
2022-11-25T06:06:02.891Z,7.23
2022-11-25T06:07:02.855Z,7.23
2022-11-25T06:08:02.842Z,7.21
2022-11-25T06:09:02.831Z,7.24
2022-11-25T06:10:03.572Z,7.21
2022-11-25T06:11:02.807Z,7.21
2022-11-25T06:12:02.801Z,7.20
2022-11-25T06:13:02.790Z,7.24
2022-11-25T06:14:02.794Z,7.20
2022-11-25T06:15:02.771Z,7.18
2022-11-25T06:16:07.663Z,7.21
2022-11-25T06:17:03.787Z,7.17
2022-11-25T06:18:02.743Z,7.20
2022-11-25T06:19:02.734Z,7.17
2022-11-25T06:20:02.707Z,7.11
2022-11-25T06:21:02.704Z,7.07
2022-11-25T06:22:02.684Z,7.13
2022-11-25T06:23:02.702Z,7.07
2022-11-25T06:24:02.665Z,7.00
2022-11-25T06:25:04.125Z,6.99
2022-11-25T06:26:02.648Z,7.00
2022-11-25T06:27:02.636Z,7.02
2022-11-25T06:28:12.917Z,6.95
2022-11-25T06:29:03.613Z,7.00
2022-11-25T06:30:02.630Z,6.96
2022-11-25T06:31:02.700Z,6.88
2022-11-25T06:32:02.578Z,6.92
2022-11-25T06:33:02.615Z,6.87
2022-11-25T06:34:02.563Z,6.93
2022-11-25T06:35:02.546Z,6.89
2022-11-25T06:36:02.538Z,6.82
2022-11-25T06:37:02.546Z,6.81
2022-11-25T06:38:02.530Z,6.88
2022-11-25T06:39:02.519Z,6.79
2022-11-25T06:40:02.504Z,6.79
2022-11-25T06:41:02.488Z,6.78
2022-11-25T06:42:02.475Z,6.78
2022-11-25T06:43:02.486Z,6.72
2022-11-25T06:44:02.477Z,6.72
2022-11-25T06:45:02.457Z,6.66
2022-11-25T06:46:02.514Z,6.69
2022-11-25T06:47:02.432Z,6.79
2022-11-25T06:48:02.430Z,6.63
2022-11-25T06:49:02.429Z,6.78
2022-11-25T06:50:02.412Z,6.75
2022-11-25T06:51:02.375Z,6.63
2022-11-25T06:52:02.370Z,6.72
2022-11-25T06:53:02.361Z,6.69
2022-11-25T06:54:02.361Z,6.64
2022-11-25T06:55:02.345Z,6.77
2022-11-25T06:56:02.328Z,6.72
2022-11-25T06:57:02.329Z,6.79
2022-11-25T06:58:27.837Z,6.70
2022-11-25T06:59:03.322Z,6.66
2022-11-25T07:00:02.296Z,6.67
2022-11-25T07:01:02.271Z,6.77
2022-11-25T07:02:02.538Z,6.70
2022-11-25T07:03:02.293Z,6.63
2022-11-25T07:04:02.263Z,6.79
2022-11-25T07:05:02.275Z,6.78
2022-11-25T07:06:02.240Z,6.75
2022-11-25T07:07:02.212Z,6.77
2022-11-25T07:08:02.227Z,6.74
2022-11-25T07:09:02.238Z,6.75
2022-11-25T07:10:02.195Z,6.78
2022-11-25T07:11:02.205Z,6.70
2022-11-25T07:12:02.165Z,6.78
2022-11-25T07:13:02.170Z,6.64
2022-11-25T07:14:02.129Z,6.69
2022-11-25T07:15:02.149Z,6.69
2022-11-25T07:16:02.223Z,6.70
2022-11-25T07:17:02.559Z,6.77
2022-11-25T07:18:02.112Z,6.75
2022-11-25T07:19:02.140Z,6.66
2022-11-25T07:20:02.065Z,6.72
2022-11-25T07:21:02.078Z,6.70
2022-11-25T07:22:02.068Z,6.79
2022-11-25T07:23:02.053Z,6.79
2022-11-25T07:24:02.048Z,6.67
2022-11-25T07:25:02.029Z,6.77
2022-11-25T07:26:02.034Z,6.74
2022-11-25T07:27:02.007Z,6.66
2022-11-25T07:28:01.984Z,6.79
2022-11-25T07:29:01.978Z,6.78
2022-11-25T07:31:23.429Z,6.79
2022-11-25T07:32:08.709Z,6.81
2022-11-25T07:33:03.020Z,6.87
2022-11-25T07:34:01.937Z,6.85
2022-11-25T07:35:01.928Z,6.92
2022-11-25T07:36:01.918Z,6.87
2022-11-25T07:37:01.906Z,6.93
2022-11-25T07:38:01.930Z,6.92
2022-11-25T07:39:01.860Z,7.02
2022-11-25T07:40:01.861Z,6.99
2022-11-25T07:41:01.853Z,6.96
2022-11-25T07:42:01.864Z,7.00
2022-11-25T07:43:01.832Z,7.11
2022-11-25T07:44:01.809Z,7.05
2022-11-25T07:45:01.810Z,7.00
2022-11-25T07:46:01.819Z,7.06
2022-11-25T07:47:01.802Z,7.17
2022-11-25T07:48:01.770Z,7.15
2022-11-25T07:49:01.758Z,7.18
2022-11-25T07:50:01.774Z,7.32
2022-11-25T07:51:01.742Z,7.29
2022-11-25T07:52:01.786Z,7.35
2022-11-25T07:53:01.725Z,7.39
2022-11-25T07:54:01.724Z,7.45
2022-11-25T07:55:01.787Z,7.51
2022-11-25T07:56:01.692Z,7.60
2022-11-25T07:57:01.677Z,7.61
2022-11-25T07:58:01.671Z,7.56
2022-11-25T07:59:02.342Z,7.70
2022-11-25T08:00:01.662Z,7.72
2022-11-25T08:01:01.690Z,7.77
2022-11-25T08:02:01.722Z,7.83
2022-11-25T08:03:01.713Z,7.93
2022-11-25T08:04:01.643Z,8.08
2022-11-25T08:05:01.602Z,8.15
2022-11-25T08:06:01.636Z,8.44
2022-11-25T08:07:01.602Z,8.81
2022-11-25T08:08:01.608Z,9.26
2022-11-25T08:09:01.572Z,9.82
2022-11-25T08:10:01.571Z,10.41
2022-11-25T08:11:01.525Z,10.67
2022-11-25T08:12:01.527Z,11.07
2022-11-25T08:13:01.512Z,11.08
2022-11-25T08:14:01.488Z,11.36
2022-11-25T08:15:01.496Z,11.52
2022-11-25T08:16:01.531Z,11.52
2022-11-25T08:17:01.488Z,11.36
2022-11-25T08:18:01.453Z,11.29
2022-11-25T08:19:01.437Z,11.23
2022-11-25T08:20:01.434Z,11.19
2022-11-25T08:21:01.442Z,11.23
2022-11-25T08:22:01.422Z,11.37
2022-11-25T08:23:01.414Z,11.47
2022-11-25T08:24:01.388Z,11.50
2022-11-25T08:25:01.381Z,11.54
2022-11-25T08:26:01.367Z,11.81
2022-11-25T08:27:01.375Z,12.13
2022-11-25T08:28:01.343Z,12.31
2022-11-25T08:29:01.344Z,12.39
2022-11-25T08:30:01.313Z,12.60
2022-11-25T08:31:01.325Z,13.12
2022-11-25T08:32:01.291Z,13.89
2022-11-25T08:33:01.356Z,14.44
2022-11-25T08:34:01.293Z,14.97
2022-11-25T08:35:01.304Z,15.46
2022-11-25T08:36:01.254Z,15.82
2022-11-25T08:37:01.244Z,16.33
2022-11-25T08:38:01.249Z,16.71
2022-11-25T08:39:01.214Z,16.97
2022-11-25T08:40:01.531Z,16.87
2022-11-25T08:41:01.199Z,16.75
2022-11-25T08:42:01.190Z,16.76
2022-11-25T08:43:01.168Z,16.79
2022-11-25T08:44:01.198Z,16.81
2022-11-25T08:45:01.178Z,16.49
2022-11-25T08:46:01.225Z,16.20
2022-11-25T08:47:01.224Z,15.88
2022-11-25T08:48:01.122Z,15.86
2022-11-25T08:49:01.114Z,15.83
2022-11-25T08:50:01.147Z,15.72
2022-11-25T08:51:01.132Z,15.57
2022-11-25T08:52:01.109Z,15.42
2022-11-25T08:53:01.082Z,15.49
2022-11-25T08:54:01.110Z,15.42
2022-11-25T08:55:01.064Z,15.24
2022-11-25T08:56:01.039Z,14.82
2022-11-25T08:57:01.127Z,14.59
2022-11-25T08:58:01.037Z,14.23
2022-11-25T08:59:01.002Z,13.93
2022-11-25T09:00:01.011Z,13.56
2022-11-25T09:01:00.989Z,13.28
2022-11-25T09:02:01.151Z,12.95
2022-11-25T09:03:03.491Z,12.78
2022-11-25T09:04:00.973Z,12.45
2022-11-25T09:05:00.957Z,12.22
2022-11-25T09:06:00.932Z,12.00
2022-11-25T09:07:00.949Z,11.65
2022-11-25T09:08:01.005Z,11.47
2022-11-25T09:09:00.912Z,11.25
2022-11-25T09:10:00.909Z,11.05
2022-11-25T09:11:01.009Z,10.87
2022-11-25T09:12:00.874Z,10.75
2022-11-25T09:13:00.859Z,10.72
2022-11-25T09:14:00.911Z,10.56
2022-11-25T09:15:00.824Z,10.56
2022-11-25T09:16:00.853Z,10.41
2022-11-25T09:17:00.828Z,10.23
2022-11-25T09:18:00.802Z,10.17
2022-11-25T09:19:00.814Z,10.12
2022-11-25T09:20:00.775Z,10.02
2022-11-25T09:21:00.764Z,10.02
2022-11-25T09:22:01.327Z,9.99
2022-11-25T09:23:00.807Z,9.87
2022-11-25T09:24:00.750Z,9.84
2022-11-25T09:25:00.734Z,9.86
2022-11-25T09:26:00.749Z,9.92
2022-11-25T09:27:00.734Z,9.80
2022-11-25T09:28:00.708Z,9.69
2022-11-25T09:29:00.690Z,9.64
2022-11-25T09:30:00.682Z,9.54
2022-11-25T09:31:00.719Z,9.40
2022-11-25T09:32:00.921Z,9.39
2022-11-25T09:33:00.815Z,9.29
2022-11-25T09:34:00.818Z,9.19
2022-11-25T09:35:00.636Z,9.16
2022-11-25T09:36:00.790Z,8.81
2022-11-25T09:37:00.623Z,8.64
2022-11-25T09:38:00.622Z,8.55
2022-11-25T09:39:00.569Z,8.51
2022-11-25T09:40:00.575Z,8.46
2022-11-25T09:41:00.558Z,8.38
2022-11-25T09:42:00.584Z,8.42
2022-11-25T09:43:00.533Z,8.49
2022-11-25T09:44:00.551Z,8.49
2022-11-25T09:45:00.520Z,8.63
2022-11-25T09:46:00.542Z,8.74
2022-11-25T09:47:00.528Z,8.85
2022-11-25T09:48:00.500Z,8.76
2022-11-25T09:49:00.472Z,8.89
2022-11-25T09:50:00.477Z,8.92
2022-11-25T09:51:00.460Z,8.94
2022-11-25T09:52:00.442Z,8.92
2022-11-25T09:53:00.420Z,8.99
2022-11-25T09:54:00.425Z,9.08
2022-11-25T09:55:00.431Z,9.14
2022-11-25T09:56:01.721Z,9.23
2022-11-25T09:57:00.405Z,9.39
2022-11-25T09:58:00.383Z,9.46
2022-11-25T09:59:00.388Z,9.29
2022-11-25T10:00:00.400Z,9.34
2022-11-25T10:01:00.356Z,9.44
2022-11-25T10:02:00.384Z,9.65
2022-11-25T10:03:00.532Z,9.66
2022-11-25T10:04:00.311Z,9.77
2022-11-25T10:05:00.335Z,9.80
2022-11-25T10:06:00.346Z,9.82
2022-11-25T10:07:00.310Z,9.91
2022-11-25T10:08:00.264Z,9.98
2022-11-25T10:09:00.256Z,10.10
2022-11-25T10:10:00.252Z,10.28
2022-11-25T10:11:00.255Z,10.37
2022-11-25T10:12:00.243Z,10.35
2022-11-25T10:13:00.214Z,10.12
2022-11-25T10:14:00.224Z,9.99
2022-11-25T10:15:00.216Z,9.99
2022-11-25T10:16:00.265Z,10.12
2022-11-25T10:17:00.218Z,10.10
2022-11-25T10:18:00.166Z,10.17
2022-11-25T10:19:00.153Z,10.17
2022-11-25T10:20:00.184Z,10.16
2022-11-25T10:21:00.159Z,10.28
2022-11-25T10:22:00.106Z,10.30
2022-11-25T10:23:00.114Z,10.26
2022-11-25T10:24:00.105Z,10.33
2022-11-25T10:25:00.100Z,10.33
2022-11-25T10:26:00.096Z,10.38
2022-11-25T10:27:00.139Z,10.37
2022-11-25T10:28:00.051Z,10.42
2022-11-25T10:29:00.037Z,10.41
2022-11-25T10:30:00.050Z,10.38
2022-11-25T10:31:00.068Z,10.26
2022-11-25T10:32:00.047Z,10.26
2022-11-25T10:33:02.470Z,10.30
2022-11-25T10:33:59.987Z,10.30
2022-11-25T10:34:59.984Z,10.40
2022-11-25T10:35:59.957Z,10.69
2022-11-25T10:36:59.984Z,10.79
2022-11-25T10:37:59.991Z,10.94
2022-11-25T10:38:59.947Z,11.04
2022-11-25T10:39:59.936Z,10.97
2022-11-25T10:40:59.906Z,10.87
2022-11-25T10:41:59.902Z,10.84
2022-11-25T10:42:59.911Z,10.86
2022-11-25T10:43:59.882Z,10.72
2022-11-25T10:44:59.868Z,10.79
2022-11-25T10:45:59.892Z,10.71
2022-11-25T10:47:15.578Z,10.67
2022-11-25T10:48:00.867Z,10.63
2022-11-25T10:48:59.842Z,10.71
2022-11-25T10:49:59.823Z,10.57
2022-11-25T10:50:59.795Z,10.41
2022-11-25T10:51:59.788Z,10.46
2022-11-25T10:52:59.810Z,10.40
2022-11-25T10:53:59.771Z,10.37
2022-11-25T10:54:59.777Z,10.23
2022-11-25T10:55:59.772Z,10.30
2022-11-25T10:56:59.733Z,10.23
2022-11-25T10:57:59.727Z,10.40
2022-11-25T10:58:59.749Z,10.28
2022-11-25T10:59:59.716Z,10.51
2022-11-25T11:00:59.699Z,10.56
2022-11-25T11:01:59.711Z,10.68
2022-11-25T11:02:59.731Z,10.68
2022-11-25T11:03:59.667Z,10.72
2022-11-25T11:04:59.686Z,10.61
2022-11-25T11:05:59.645Z,10.54
2022-11-25T11:06:59.629Z,10.59
2022-11-25T11:07:59.706Z,10.59
2022-11-25T11:08:59.605Z,10.53
2022-11-25T11:09:59.634Z,10.67
2022-11-25T11:10:59.637Z,10.68
2022-11-25T11:11:59.608Z,10.68
2022-11-25T11:12:59.588Z,10.82
2022-11-25T11:13:59.578Z,10.90
2022-11-25T11:14:59.545Z,10.82
2022-11-25T11:15:59.618Z,10.78
2022-11-25T11:16:59.554Z,10.79
2022-11-25T11:17:59.533Z,10.90
2022-11-25T11:18:59.503Z,10.93
2022-11-25T11:19:59.485Z,10.99
2022-11-25T11:20:59.480Z,11.00
2022-11-25T11:21:59.484Z,10.99
2022-11-25T11:23:02.951Z,11.14
2022-11-25T11:23:59.453Z,11.02
2022-11-25T11:24:59.438Z,10.89
2022-11-25T11:25:59.422Z,10.86
2022-11-25T11:26:59.413Z,10.86
2022-11-25T11:27:59.403Z,10.89
2022-11-25T11:28:59.437Z,10.86
2022-11-25T11:29:59.430Z,10.89
2022-11-25T11:30:59.390Z,10.69
2022-11-25T11:31:59.384Z,10.41
2022-11-25T11:32:59.352Z,10.28
2022-11-25T11:33:59.385Z,10.30
2022-11-25T11:34:59.326Z,10.42
2022-11-25T11:35:59.323Z,10.42
2022-11-25T11:36:59.335Z,10.41
2022-11-25T11:37:59.294Z,10.49
2022-11-25T11:38:59.287Z,10.56
2022-11-25T11:39:59.269Z,10.59
2022-11-25T11:40:59.277Z,10.69
2022-11-25T11:41:59.293Z,10.74
2022-11-25T11:42:59.256Z,10.71
2022-11-25T11:43:59.231Z,10.79
2022-11-25T11:44:59.229Z,10.78
2022-11-25T11:45:59.233Z,10.84
2022-11-25T11:46:59.237Z,10.79
2022-11-25T11:47:59.228Z,10.81
2022-11-25T11:48:59.177Z,10.68
2022-11-25T11:49:59.188Z,10.71
2022-11-25T11:50:59.169Z,10.71
2022-11-25T11:51:59.154Z,10.68
2022-11-25T11:52:59.219Z,10.74
2022-11-25T11:53:59.135Z,10.86
2022-11-25T11:54:59.152Z,10.82
2022-11-25T11:56:33.803Z,10.84
2022-11-25T11:57:00.104Z,10.82
2022-11-25T11:57:59.086Z,10.78
2022-11-25T11:58:59.112Z,10.78
2022-11-25T11:59:59.079Z,10.84
2022-11-25T12:00:59.300Z,10.75
2022-11-25T12:01:59.476Z,10.82
2022-11-25T12:02:59.109Z,10.86
2022-11-25T12:03:59.137Z,10.84
2022-11-25T12:04:59.130Z,10.76
2022-11-25T12:05:59.049Z,10.74
2022-11-25T12:06:59.036Z,10.63
2022-11-25T12:07:59.108Z,10.72
2022-11-25T12:08:58.989Z,10.60
2022-11-25T12:09:58.992Z,10.60
2022-11-25T12:10:58.944Z,10.63
2022-11-25T12:11:58.943Z,10.59
2022-11-25T12:12:58.948Z,10.44
2022-11-25T12:14:01.010Z,10.44
2022-11-25T12:14:58.901Z,10.23
2022-11-25T12:15:59.024Z,10.22
2022-11-25T12:16:58.879Z,10.17
2022-11-25T12:17:58.882Z,10.04
2022-11-25T12:18:58.857Z,10.02
2022-11-25T12:19:58.888Z,10.04
2022-11-25T12:20:58.865Z,10.09
2022-11-25T12:21:58.834Z,10.05
2022-11-25T12:22:58.833Z,10.04
2022-11-25T12:23:58.802Z,9.99
2022-11-25T12:24:58.803Z,10.05
2022-11-25T12:25:58.815Z,10.02
2022-11-25T12:26:58.778Z,9.98
2022-11-25T12:27:58.781Z,9.87
2022-11-25T12:28:58.793Z,9.79
2022-11-25T12:29:58.783Z,9.80
2022-11-25T12:31:04.590Z,9.74
2022-11-25T12:31:59.776Z,9.72
2022-11-25T12:32:58.722Z,9.72
2022-11-25T12:33:58.739Z,9.77
2022-11-25T12:34:58.714Z,9.79
2022-11-25T12:35:58.725Z,9.65
2022-11-25T12:36:58.688Z,9.65
2022-11-25T12:37:58.684Z,9.62
2022-11-25T12:38:58.641Z,9.64
2022-11-25T12:39:58.646Z,9.74
2022-11-25T12:40:58.645Z,9.66
2022-11-25T12:41:58.630Z,9.68
2022-11-25T12:42:58.633Z,9.65
2022-11-25T12:43:58.602Z,9.68
2022-11-25T12:44:58.600Z,9.64
2022-11-25T12:45:58.608Z,9.64
2022-11-25T12:46:58.557Z,9.72
2022-11-25T12:47:58.587Z,9.65
2022-11-25T12:48:58.537Z,9.73
2022-11-25T12:49:58.554Z,9.76
2022-11-25T12:50:58.525Z,9.82
2022-11-25T12:51:58.518Z,9.74
2022-11-25T12:52:58.493Z,9.83
2022-11-25T12:53:58.531Z,9.79
2022-11-25T12:54:58.469Z,9.87
2022-11-25T12:55:58.468Z,9.83
2022-11-25T12:56:58.449Z,9.87
2022-11-25T12:57:58.445Z,9.89
2022-11-25T12:58:58.461Z,9.87
2022-11-25T13:00:24.909Z,9.86
2022-11-25T13:00:59.460Z,9.91
2022-11-25T13:01:58.532Z,9.84
2022-11-25T13:02:58.438Z,9.84
2022-11-25T13:03:58.380Z,9.84
2022-11-25T13:05:18.536Z,9.89
2022-11-25T13:05:59.449Z,9.86
2022-11-25T13:06:58.342Z,9.95
2022-11-25T13:07:58.361Z,9.94
2022-11-25T13:08:58.334Z,9.95
2022-11-25T13:09:58.342Z,9.86
2022-11-25T13:10:58.699Z,9.86
2022-11-25T13:11:58.652Z,9.98
2022-11-25T13:12:58.618Z,9.91